createdAt,value
2022-08-17T00:00:01.242Z,16.07
2022-08-17T00:00:15.744Z,16.05
2022-08-17T00:00:43.368Z,16.04
2022-08-17T00:00:44.135Z,16.05
2022-08-17T00:00:51.907Z,16.07
2022-08-17T00:00:54.852Z,16.04
2022-08-17T00:01:04.442Z,16.05
2022-08-17T00:01:14.936Z,16.01
2022-08-17T00:01:26.302Z,16.02
2022-08-17T00:01:51.387Z,16.02
2022-08-17T00:01:51.896Z,16.02
2022-08-17T00:01:58.078Z,16.02
2022-08-17T00:02:15.304Z,16.01
2022-08-17T00:02:25.297Z,16.01
2022-08-17T00:02:29.555Z,16.01
2022-08-17T00:02:43.060Z,16.00
2022-08-17T00:02:49.879Z,16.01
2022-08-17T00:03:00.108Z,16.01
2022-08-17T00:03:10.630Z,16.01
2022-08-17T00:03:22.296Z,16.00
2022-08-17T00:03:31.683Z,16.00
2022-08-17T00:03:42.190Z,16.00
2022-08-17T00:03:52.724Z,16.00
2022-08-17T00:04:05.899Z,16.00
2022-08-17T00:04:14.764Z,16.01
2022-08-17T00:04:24.272Z,16.00
2022-08-17T00:04:34.798Z,16.01
2022-08-17T00:04:50.307Z,15.97
2022-08-17T00:04:56.861Z,16.00
2022-08-17T00:05:06.356Z,16.00
2022-08-17T00:05:16.888Z,16.00
2022-08-17T00:05:27.413Z,15.97
2022-08-17T00:05:37.919Z,15.97
2022-08-17T00:05:48.441Z,15.97
2022-08-17T00:05:58.965Z,15.97
2022-08-17T00:06:09.485Z,15.97
2022-08-17T00:06:20.016Z,15.96
2022-08-17T00:06:30.523Z,15.94
2022-08-17T00:06:41.043Z,15.94
2022-08-17T00:06:51.563Z,15.96
2022-08-17T00:07:02.091Z,15.94
2022-08-17T00:07:12.601Z,15.96
2022-08-17T00:07:23.138Z,15.96
2022-08-17T00:07:33.649Z,15.94
2022-08-17T00:07:44.181Z,15.94
2022-08-17T00:07:54.697Z,15.94
2022-08-17T00:08:05.208Z,15.94
2022-08-17T00:08:15.731Z,15.93
2022-08-17T00:08:26.252Z,15.94
2022-08-17T00:08:36.769Z,15.94
2022-08-17T00:08:47.291Z,15.93
2022-08-17T00:08:57.815Z,15.94
2022-08-17T00:09:08.341Z,15.92
2022-08-17T00:09:19.471Z,15.93
2022-08-17T00:09:29.379Z,15.93
2022-08-17T00:09:39.890Z,15.93
2022-08-17T00:09:50.446Z,15.94
2022-08-17T00:10:00.955Z,15.93
2022-08-17T00:10:11.459Z,15.92
2022-08-17T00:10:21.975Z,15.93
2022-08-17T00:10:32.612Z,15.93
2022-08-17T00:10:43.024Z,15.93
2022-08-17T00:10:53.540Z,15.93
2022-08-17T00:11:04.069Z,15.92
2022-08-17T00:11:14.589Z,15.92
2022-08-17T00:11:25.104Z,15.93
2022-08-17T00:11:35.624Z,15.90
2022-08-17T00:12:03.883Z,15.90
2022-08-17T00:12:41.203Z,15.89
2022-08-17T00:12:41.414Z,15.90
2022-08-17T00:12:42.767Z,15.89
2022-08-17T00:12:42.827Z,15.89
2022-08-17T00:12:43.339Z,15.90
2022-08-17T00:12:49.264Z,15.89
2022-08-17T00:12:59.782Z,15.90
2022-08-17T00:13:10.304Z,15.90
2022-08-17T00:13:20.818Z,15.89
2022-08-17T00:13:31.341Z,15.90
2022-08-17T00:13:41.854Z,15.87
2022-08-17T00:13:52.378Z,15.89
2022-08-17T00:14:02.907Z,15.89
2022-08-17T00:14:13.411Z,15.89
2022-08-17T00:14:23.938Z,15.90
2022-08-17T00:14:34.451Z,15.89
2022-08-17T00:14:44.972Z,15.89
2022-08-17T00:14:55.504Z,15.89
2022-08-17T00:15:06.014Z,15.89
2022-08-17T00:15:16.529Z,15.90
2022-08-17T00:15:27.055Z,15.92
2022-08-17T00:15:37.574Z,15.90
2022-08-17T00:15:48.095Z,15.90
2022-08-17T00:15:58.608Z,15.89
2022-08-17T00:16:09.136Z,15.89
2022-08-17T00:16:19.656Z,15.89
2022-08-17T00:16:55.939Z,15.89
2022-08-17T00:16:56.270Z,15.86
2022-08-17T00:16:57.130Z,15.89
2022-08-17T00:17:02.731Z,15.87
2022-08-17T00:17:12.262Z,15.90
2022-08-17T00:17:22.781Z,15.89
2022-08-17T00:17:33.320Z,15.87
2022-08-17T00:17:43.822Z,15.87
2022-08-17T00:17:54.339Z,15.87
2022-08-17T00:18:04.860Z,15.87
2022-08-17T00:18:53.840Z,15.86
2022-08-17T00:18:57.453Z,15.84
2022-08-17T00:19:01.662Z,15.87
2022-08-17T00:19:02.200Z,15.84
2022-08-17T00:19:07.511Z,15.87
2022-08-17T00:19:09.030Z,15.83
2022-08-17T00:19:18.505Z,15.83
2022-08-17T00:19:29.029Z,15.83
2022-08-17T00:19:39.550Z,15.83
2022-08-17T00:19:50.074Z,15.80
2022-08-17T00:20:00.600Z,15.80
2022-08-17T00:20:11.112Z,15.80
2022-08-17T00:20:21.635Z,15.78
2022-08-17T00:20:34.787Z,15.78
2022-08-17T00:20:42.701Z,15.78
2022-08-17T00:20:53.193Z,15.75
2022-08-17T00:21:03.715Z,15.76
2022-08-17T00:21:14.234Z,15.75
2022-08-17T00:21:25.323Z,15.75
2022-08-17T00:21:44.659Z,15.75
2022-08-17T00:22:28.880Z,15.69
2022-08-17T00:22:29.804Z,15.74
2022-08-17T00:22:32.676Z,15.72
2022-08-17T00:22:33.253Z,15.71
2022-08-17T00:22:33.716Z,15.71
2022-08-17T00:22:38.424Z,15.69
2022-08-17T00:22:49.132Z,15.69
2022-08-17T00:22:59.444Z,15.68
2022-08-17T00:23:09.972Z,15.69
2022-08-17T00:23:20.480Z,15.67
2022-08-17T00:23:31.005Z,15.68
2022-08-17T00:23:44.500Z,15.68
2022-08-17T00:23:53.047Z,15.65
2022-08-17T00:24:02.563Z,15.64
2022-08-17T00:24:13.088Z,15.64
2022-08-17T00:24:23.620Z,15.65
2022-08-17T00:24:34.148Z,15.65
2022-08-17T00:24:44.649Z,15.65
2022-08-17T00:24:55.181Z,15.65
2022-08-17T00:25:05.689Z,15.65
2022-08-17T00:25:16.204Z,15.64
2022-08-17T00:25:26.729Z,15.64
2022-08-17T00:25:37.283Z,15.65
2022-08-17T00:25:47.761Z,15.65
2022-08-17T00:25:58.284Z,15.67
2022-08-17T00:26:08.819Z,15.65
2022-08-17T00:26:43.529Z,15.67
2022-08-17T00:26:44.012Z,15.68
2022-08-17T00:26:45.213Z,15.67
2022-08-17T00:26:50.894Z,15.68
2022-08-17T00:27:01.414Z,15.68
2022-08-17T00:27:11.925Z,15.65
2022-08-17T00:27:22.450Z,15.64
2022-08-17T00:27:32.968Z,15.67
2022-08-17T00:27:43.489Z,15.65
2022-08-17T00:27:54.015Z,15.67
2022-08-17T00:28:04.532Z,15.65
2022-08-17T00:28:15.055Z,15.68
2022-08-17T00:28:25.573Z,15.67
2022-08-17T00:28:36.106Z,15.67
2022-08-17T00:28:46.614Z,15.67
2022-08-17T00:28:57.167Z,15.68
2022-08-17T00:29:07.655Z,15.67
2022-08-17T00:29:19.887Z,15.68
2022-08-17T00:29:28.691Z,15.68
2022-08-17T00:29:39.215Z,15.67
2022-08-17T00:29:49.734Z,15.67
2022-08-17T00:30:00.262Z,15.65
2022-08-17T00:30:10.798Z,15.67
2022-08-17T00:30:21.302Z,15.65
2022-08-17T00:30:50.849Z,15.68
2022-08-17T00:30:52.756Z,15.65
2022-08-17T00:30:53.903Z,15.65
2022-08-17T00:31:03.377Z,15.67
2022-08-17T00:31:13.897Z,15.67
2022-08-17T00:31:24.419Z,15.68
2022-08-17T00:31:34.939Z,15.67
2022-08-17T00:31:45.457Z,15.67
2022-08-17T00:31:55.980Z,15.67
2022-08-17T00:33:10.957Z,15.72
2022-08-17T00:33:10.958Z,15.69
2022-08-17T00:33:11.821Z,15.69
2022-08-17T00:33:12.321Z,15.69
2022-08-17T00:33:12.660Z,15.71
2022-08-17T00:33:14.593Z,15.68
2022-08-17T00:33:16.574Z,15.74
2022-08-17T00:33:21.144Z,15.74
2022-08-17T00:33:31.071Z,15.72
2022-08-17T00:33:41.182Z,15.74
2022-08-17T00:33:51.703Z,15.72
2022-08-17T00:34:02.256Z,15.72
2022-08-17T00:34:12.734Z,15.75
2022-08-17T00:34:23.263Z,15.74
2022-08-17T00:34:33.780Z,15.74
2022-08-17T00:34:44.401Z,15.72
2022-08-17T00:34:54.815Z,15.72
2022-08-17T00:35:05.336Z,15.72
2022-08-17T00:35:15.870Z,15.72
2022-08-17T00:35:26.369Z,15.72
2022-08-17T00:35:36.890Z,15.72
2022-08-17T00:35:47.414Z,15.71
2022-08-17T00:35:57.928Z,15.71
2022-08-17T00:36:08.447Z,15.69
2022-08-17T00:36:18.968Z,15.68
2022-08-17T00:36:29.485Z,15.69
2022-08-17T00:36:40.013Z,15.68
2022-08-17T00:36:50.522Z,15.68
2022-08-17T00:37:01.047Z,15.67
2022-08-17T00:37:11.562Z,15.68
2022-08-17T00:37:22.091Z,15.68
2022-08-17T00:37:32.604Z,15.64
2022-08-17T00:37:43.128Z,15.64
2022-08-17T00:37:53.649Z,15.65
2022-08-17T00:38:04.218Z,15.64
2022-08-17T00:38:14.684Z,15.60
2022-08-17T00:38:25.211Z,15.60
2022-08-17T00:38:35.723Z,15.62
2022-08-17T00:38:46.251Z,15.59
2022-08-17T00:38:56.763Z,15.59
2022-08-17T00:39:07.290Z,15.57
2022-08-17T00:39:17.797Z,15.57
2022-08-17T00:39:28.377Z,15.54
2022-08-17T00:39:38.867Z,15.56
2022-08-17T00:39:49.418Z,15.56
2022-08-17T00:40:00.003Z,15.54
2022-08-17T00:40:10.454Z,15.54
2022-08-17T00:40:20.918Z,15.56
2022-08-17T00:40:40.846Z,15.54
2022-08-17T00:40:44.763Z,15.54
2022-08-17T00:40:52.488Z,15.56
2022-08-17T00:41:02.989Z,15.54
2022-08-17T00:41:13.511Z,15.57
2022-08-17T00:41:24.038Z,15.54
2022-08-17T00:41:34.555Z,15.54
2022-08-17T00:41:45.068Z,15.57
2022-08-17T00:41:55.604Z,15.54
2022-08-17T00:42:06.112Z,15.56
2022-08-17T00:42:16.636Z,15.56
2022-08-17T00:42:30.992Z,15.54
2022-08-17T00:42:37.679Z,15.54
2022-08-17T00:42:48.271Z,15.53
2022-08-17T00:42:58.708Z,15.56
2022-08-17T00:43:09.228Z,15.53
2022-08-17T00:43:19.747Z,15.54
2022-08-17T00:43:30.266Z,15.54
2022-08-17T00:43:40.798Z,15.53
2022-08-17T00:43:51.308Z,15.56
2022-08-17T00:44:01.830Z,15.54
2022-08-17T00:44:12.605Z,15.51
2022-08-17T00:44:22.874Z,15.53
2022-08-17T00:44:34.387Z,15.53
2022-08-17T00:44:43.934Z,15.53
2022-08-17T00:44:54.423Z,15.51
2022-08-17T00:45:04.970Z,15.54
2022-08-17T00:45:15.453Z,15.51
2022-08-17T00:45:25.992Z,15.51
2022-08-17T00:45:36.501Z,15.53
2022-08-17T00:45:47.031Z,15.54
2022-08-17T00:45:57.537Z,15.53
2022-08-17T00:46:08.058Z,15.54
2022-08-17T00:46:18.573Z,15.53
2022-08-17T00:46:29.101Z,15.53
2022-08-17T00:46:39.616Z,15.56
2022-08-17T00:46:50.137Z,15.53
2022-08-17T00:47:00.649Z,15.53
2022-08-17T00:47:11.177Z,15.53
2022-08-17T00:47:21.702Z,15.54
2022-08-17T00:47:32.216Z,15.54
2022-08-17T00:47:42.729Z,15.53
2022-08-17T00:47:53.253Z,15.53
2022-08-17T00:48:03.769Z,15.54
2022-08-17T00:48:28.947Z,15.51
2022-08-17T00:48:29.531Z,15.53
2022-08-17T00:48:35.328Z,15.51
2022-08-17T00:48:45.845Z,15.51
2022-08-17T00:48:56.365Z,15.53
2022-08-17T00:49:06.897Z,15.53
2022-08-17T00:49:17.403Z,15.51
2022-08-17T00:49:27.927Z,15.53
2022-08-17T00:49:38.440Z,15.50
2022-08-17T00:49:48.971Z,15.50
2022-08-17T00:49:59.476Z,15.51
2022-08-17T00:50:10.044Z,15.50
2022-08-17T00:50:20.516Z,15.49
2022-08-17T00:50:31.038Z,15.49
2022-08-17T00:50:41.555Z,15.49
2022-08-17T00:50:52.069Z,15.47
2022-08-17T00:51:02.592Z,15.47
2022-08-17T00:51:13.138Z,15.49
2022-08-17T00:51:23.634Z,15.49
2022-08-17T00:51:34.152Z,15.47
2022-08-17T00:51:44.673Z,15.47
2022-08-17T00:51:55.189Z,15.49
2022-08-17T00:52:05.708Z,15.50
2022-08-17T00:52:17.227Z,15.53
2022-08-17T00:52:26.744Z,15.53
2022-08-17T00:52:37.269Z,15.53
2022-08-17T00:52:47.781Z,15.54
2022-08-17T00:52:58.301Z,15.54
2022-08-17T00:53:08.838Z,15.54
2022-08-17T00:53:19.343Z,15.56
2022-08-17T00:53:29.862Z,15.56
2022-08-17T00:53:40.396Z,15.56
2022-08-17T00:53:50.904Z,15.57
2022-08-17T00:54:01.415Z,15.57
2022-08-17T00:54:11.946Z,15.57
2022-08-17T00:54:22.457Z,15.57
2022-08-17T00:54:32.999Z,15.59
2022-08-17T00:54:44.495Z,15.56
2022-08-17T00:54:54.022Z,15.54
2022-08-17T00:55:04.528Z,15.53
2022-08-17T00:55:15.059Z,15.53
2022-08-17T00:55:25.572Z,15.50
2022-08-17T00:55:36.094Z,15.50
2022-08-17T00:55:46.606Z,15.49
2022-08-17T00:55:57.127Z,15.46
2022-08-17T00:56:07.679Z,15.46
2022-08-17T00:56:18.171Z,15.43
2022-08-17T00:56:28.688Z,15.43
2022-08-17T00:56:39.203Z,15.44
2022-08-17T00:56:49.720Z,15.39
2022-08-17T00:57:00.240Z,15.38
2022-08-17T00:57:10.764Z,15.38
2022-08-17T00:57:21.284Z,15.35
2022-08-17T00:57:31.811Z,15.36
2022-08-17T00:57:42.325Z,15.35
2022-08-17T00:57:55.447Z,15.35
2022-08-17T00:58:03.370Z,15.35
2022-08-17T00:58:13.881Z,15.36
2022-08-17T00:58:30.441Z,15.36
2022-08-17T00:58:36.796Z,15.36
2022-08-17T00:58:45.449Z,15.35
2022-08-17T00:58:55.961Z,15.35
2022-08-17T00:59:06.481Z,15.36
2022-08-17T00:59:17.004Z,15.34
2022-08-17T00:59:27.515Z,15.36
2022-08-17T00:59:38.040Z,15.35
2022-08-17T00:59:55.926Z,15.34
2022-08-17T01:00:03.038Z,15.35
2022-08-17T01:00:09.592Z,15.34
2022-08-17T01:00:20.120Z,15.34
2022-08-17T01:00:30.645Z,15.34
2022-08-17T01:00:41.234Z,15.34
2022-08-17T01:00:51.816Z,15.32
2022-08-17T01:01:02.303Z,15.32
2022-08-17T01:01:12.793Z,15.34
2022-08-17T01:01:24.277Z,15.32
2022-08-17T01:01:33.800Z,15.32
2022-08-17T01:01:44.267Z,15.35
2022-08-17T01:01:54.794Z,15.34
2022-08-17T01:02:05.307Z,15.32
2022-08-17T01:02:15.822Z,15.31
2022-08-17T01:02:26.337Z,15.31
2022-08-17T01:02:42.087Z,15.31
2022-08-17T01:02:48.385Z,15.31
2022-08-17T01:02:57.890Z,15.31
2022-08-17T01:03:08.408Z,15.29
2022-08-17T01:03:18.933Z,15.28
2022-08-17T01:03:29.444Z,15.31
2022-08-17T01:03:39.962Z,15.28
2022-08-17T01:03:50.477Z,15.28
2022-08-17T01:04:01.000Z,15.27
2022-08-17T01:04:11.523Z,15.25
2022-08-17T01:04:22.032Z,15.27
2022-08-17T01:04:32.553Z,15.27
2022-08-17T01:04:43.117Z,15.27
2022-08-17T01:04:53.596Z,15.25
2022-08-17T01:05:04.111Z,15.25
2022-08-17T01:05:14.635Z,15.23
2022-08-17T01:05:25.359Z,15.25
2022-08-17T01:05:35.667Z,15.21
2022-08-17T01:05:46.247Z,15.23
2022-08-17T01:05:56.725Z,15.21
2022-08-17T01:06:07.217Z,15.20
2022-08-17T01:06:17.737Z,15.21
2022-08-17T01:06:28.271Z,15.20
2022-08-17T01:06:38.774Z,15.20
2022-08-17T01:06:49.297Z,15.19
2022-08-17T01:06:59.808Z,15.20
2022-08-17T01:07:10.377Z,15.19
2022-08-17T01:07:20.845Z,15.20
2022-08-17T01:07:31.369Z,15.19
2022-08-17T01:07:41.881Z,15.19
2022-08-17T01:07:52.406Z,15.17
2022-08-17T01:08:02.922Z,15.19
2022-08-17T01:08:13.436Z,15.17
2022-08-17T01:08:23.955Z,15.17
2022-08-17T01:08:34.478Z,15.16
2022-08-17T01:08:45.012Z,15.17
2022-08-17T01:08:57.495Z,15.17
2022-08-17T01:09:06.030Z,15.16
2022-08-17T01:09:16.545Z,15.16
2022-08-17T01:09:27.067Z,15.16
2022-08-17T01:09:37.583Z,15.16
2022-08-17T01:09:48.096Z,15.16
2022-08-17T01:09:58.620Z,15.14
2022-08-17T01:10:58.730Z,15.13
2022-08-17T01:10:58.881Z,15.16
2022-08-17T01:10:58.921Z,15.14
2022-08-17T01:11:00.084Z,15.14
2022-08-17T01:11:00.582Z,15.14
2022-08-17T01:11:02.736Z,15.13
2022-08-17T01:11:12.242Z,15.14
2022-08-17T01:11:22.767Z,15.13
2022-08-17T01:11:33.279Z,15.13
2022-08-17T01:11:43.799Z,15.14
2022-08-17T01:11:54.342Z,15.14
2022-08-17T01:12:04.836Z,15.13
2022-08-17T01:12:15.356Z,15.14
2022-08-17T01:12:25.879Z,15.13
2022-08-17T01:12:36.385Z,15.16
2022-08-17T01:12:46.934Z,15.16
2022-08-17T01:12:57.429Z,15.16
2022-08-17T01:13:07.950Z,15.14
2022-08-17T01:13:18.484Z,15.17
2022-08-17T01:13:28.982Z,15.16
2022-08-17T01:13:41.019Z,15.14
2022-08-17T01:13:50.045Z,15.16
2022-08-17T01:14:00.532Z,15.16
2022-08-17T01:14:11.053Z,15.16
2022-08-17T01:14:21.581Z,15.17
2022-08-17T01:14:32.087Z,15.17
2022-08-17T01:14:42.602Z,15.17
2022-08-17T01:14:53.125Z,15.17
2022-08-17T01:15:03.642Z,15.19
2022-08-17T01:15:14.165Z,15.17
2022-08-17T01:15:24.682Z,15.19
2022-08-17T01:15:35.202Z,15.19
2022-08-17T01:15:46.047Z,15.19
2022-08-17T01:15:56.232Z,15.17
2022-08-17T01:16:06.748Z,15.17
2022-08-17T01:16:17.295Z,15.17
2022-08-17T01:16:27.784Z,15.19
2022-08-17T01:16:38.337Z,15.19
2022-08-17T01:16:48.830Z,15.17
2022-08-17T01:16:59.347Z,15.16
2022-08-17T01:17:09.858Z,15.19
2022-08-17T01:17:20.378Z,15.17
2022-08-17T01:17:30.894Z,15.16
2022-08-17T01:17:41.421Z,15.17
2022-08-17T01:17:51.928Z,15.17
2022-08-17T01:18:02.448Z,15.14
2022-08-17T01:18:12.981Z,15.16
2022-08-17T01:18:23.492Z,15.16
2022-08-17T01:18:34.010Z,15.16
2022-08-17T01:18:44.554Z,15.14
2022-08-17T01:18:55.042Z,15.11
2022-08-17T01:19:05.595Z,15.13
2022-08-17T01:19:16.083Z,15.13
2022-08-17T01:19:26.619Z,15.13
2022-08-17T01:19:37.123Z,15.11
2022-08-17T01:19:47.653Z,15.11
2022-08-17T01:19:58.167Z,15.11
2022-08-17T01:20:08.676Z,15.11
2022-08-17T01:20:19.195Z,15.10
2022-08-17T01:20:29.714Z,15.09
2022-08-17T01:20:47.877Z,15.09
2022-08-17T01:20:51.749Z,15.09
2022-08-17T01:21:01.275Z,15.09
2022-08-17T01:21:11.781Z,15.09
2022-08-17T01:21:22.303Z,15.07
2022-08-17T01:21:32.822Z,15.07
2022-08-17T01:21:43.344Z,15.07
2022-08-17T01:21:53.857Z,15.06
2022-08-17T01:22:04.382Z,15.09
2022-08-17T01:22:14.895Z,15.06
2022-08-17T01:22:25.424Z,15.07
2022-08-17T01:22:35.931Z,15.06
2022-08-17T01:22:46.507Z,15.07
2022-08-17T01:22:56.980Z,15.07
2022-08-17T01:23:07.486Z,15.06
2022-08-17T01:23:20.565Z,15.06
2022-08-17T01:23:28.529Z,15.06
2022-08-17T01:23:39.048Z,15.03
2022-08-17T01:23:49.627Z,15.07
2022-08-17T01:24:00.084Z,15.03
2022-08-17T01:24:10.602Z,15.07
2022-08-17T01:24:21.124Z,15.07
2022-08-17T01:24:31.638Z,15.09
2022-08-17T01:24:42.160Z,15.06
2022-08-17T01:24:52.678Z,15.06
2022-08-17T01:25:03.196Z,15.07
2022-08-17T01:25:13.710Z,15.10
2022-08-17T01:25:24.232Z,15.10
2022-08-17T01:25:34.751Z,15.10
2022-08-17T01:25:45.262Z,15.10
2022-08-17T01:25:55.788Z,15.09
2022-08-17T01:26:06.315Z,15.10
2022-08-17T01:26:16.820Z,15.09
2022-08-17T01:26:27.345Z,15.10
2022-08-17T01:26:37.866Z,15.11
2022-08-17T01:26:48.377Z,15.13
2022-08-17T01:26:58.893Z,15.14
2022-08-17T01:27:10.272Z,15.16
2022-08-17T01:27:20.663Z,15.17
2022-08-17T01:27:30.448Z,15.19
2022-08-17T01:27:40.969Z,15.17
2022-08-17T01:27:51.481Z,15.19
2022-08-17T01:28:02.006Z,15.17
2022-08-17T01:28:12.525Z,15.19
2022-08-17T01:28:53.400Z,15.20
2022-08-17T01:28:54.048Z,15.19
2022-08-17T01:28:54.974Z,15.20
2022-08-17T01:28:55.930Z,15.21
2022-08-17T01:29:05.109Z,15.21
2022-08-17T01:29:15.630Z,15.21
2022-08-17T01:29:26.161Z,15.20
2022-08-17T01:29:36.693Z,15.20
2022-08-17T01:29:47.207Z,15.20
2022-08-17T01:29:57.704Z,15.23
2022-08-17T01:30:56.530Z,15.20
2022-08-17T01:30:56.813Z,15.20
2022-08-17T01:30:58.136Z,15.21
2022-08-17T01:30:58.353Z,15.20
2022-08-17T01:30:58.824Z,15.20
2022-08-17T01:31:01.807Z,15.21
2022-08-17T01:31:11.336Z,15.21
2022-08-17T01:31:21.873Z,15.20
2022-08-17T01:31:32.371Z,15.19
2022-08-17T01:31:42.881Z,15.20
2022-08-17T01:31:53.408Z,15.19
2022-08-17T01:32:03.939Z,15.17
2022-08-17T01:32:14.444Z,15.17
2022-08-17T01:32:24.964Z,15.16
2022-08-17T01:32:35.486Z,15.14
2022-08-17T01:32:46.079Z,15.13
2022-08-17T01:32:56.518Z,15.13
2022-08-17T01:33:07.042Z,15.13
2022-08-17T01:33:17.554Z,15.14
2022-08-17T01:33:28.069Z,15.14
2022-08-17T01:33:38.594Z,15.11
2022-08-17T01:33:49.104Z,15.11
2022-08-17T01:33:59.625Z,15.11
2022-08-17T01:34:10.143Z,15.11
2022-08-17T01:34:20.668Z,15.07
2022-08-17T01:34:42.745Z,15.09
2022-08-17T01:34:45.522Z,15.09
2022-08-17T01:34:53.219Z,15.09
2022-08-17T01:35:02.751Z,15.07
2022-08-17T01:35:13.261Z,15.07
2022-08-17T01:35:23.771Z,15.07
2022-08-17T01:35:34.298Z,15.07
2022-08-17T01:35:44.807Z,15.06
2022-08-17T01:35:55.332Z,15.02
2022-08-17T01:36:05.847Z,15.02
2022-08-17T01:36:16.364Z,15.02
2022-08-17T01:36:26.903Z,15.01
2022-08-17T01:36:37.410Z,15.03
2022-08-17T01:36:47.923Z,14.99
2022-08-17T01:36:58.447Z,14.99
2022-08-17T01:37:08.958Z,14.98
2022-08-17T01:37:19.479Z,14.98
2022-08-17T01:37:29.999Z,14.96
2022-08-17T01:37:40.526Z,14.98
2022-08-17T01:37:51.039Z,14.96
2022-08-17T01:38:01.561Z,14.94
2022-08-17T01:38:12.076Z,14.95
2022-08-17T01:38:27.073Z,14.95
2022-08-17T01:38:33.104Z,14.95
2022-08-17T01:38:43.664Z,14.94
2022-08-17T01:38:54.148Z,14.94
2022-08-17T01:39:04.667Z,14.92
2022-08-17T01:39:15.180Z,14.92
2022-08-17T01:39:25.775Z,14.92
2022-08-17T01:39:36.260Z,14.89
2022-08-17T01:39:46.818Z,14.91
2022-08-17T01:39:57.319Z,14.91
2022-08-17T01:40:07.877Z,14.89
2022-08-17T01:40:18.308Z,14.89
2022-08-17T01:40:28.810Z,14.88
2022-08-17T01:40:39.325Z,14.86
2022-08-17T01:40:49.852Z,14.89
2022-08-17T01:41:01.369Z,14.89
2022-08-17T01:41:10.878Z,14.88
2022-08-17T01:41:21.397Z,14.88
2022-08-17T01:41:31.923Z,14.88
2022-08-17T01:41:42.431Z,14.88
2022-08-17T01:41:52.949Z,14.88
2022-08-17T01:42:03.467Z,14.89
2022-08-17T01:42:14.027Z,14.89
2022-08-17T01:42:24.504Z,14.89
2022-08-17T01:42:35.028Z,14.89
2022-08-17T01:42:45.605Z,14.91
2022-08-17T01:42:56.066Z,14.91
2022-08-17T01:43:06.579Z,14.89
2022-08-17T01:43:17.096Z,14.91
2022-08-17T01:43:27.617Z,14.91
2022-08-17T01:43:38.133Z,14.89
2022-08-17T01:43:48.646Z,14.89
2022-08-17T01:43:59.172Z,14.88
2022-08-17T01:44:09.691Z,14.91
2022-08-17T01:44:20.205Z,14.89
2022-08-17T01:44:30.727Z,14.89
2022-08-17T01:44:41.263Z,14.89
2022-08-17T01:44:51.757Z,14.89
2022-08-17T01:45:02.316Z,14.91
2022-08-17T01:45:12.797Z,14.91
2022-08-17T01:45:23.318Z,14.92
2022-08-17T01:45:33.829Z,14.91
2022-08-17T01:45:44.345Z,14.91
2022-08-17T01:46:02.728Z,14.91
2022-08-17T01:46:06.381Z,14.92
2022-08-17T01:46:15.897Z,14.91
2022-08-17T01:46:26.422Z,14.92
2022-08-17T01:46:36.928Z,14.92
2022-08-17T01:46:47.448Z,14.91
2022-08-17T01:46:57.965Z,14.91
2022-08-17T01:47:08.488Z,14.92
2022-08-17T01:47:19.001Z,14.91
2022-08-17T01:47:29.848Z,14.92
2022-08-17T01:47:40.062Z,14.91
2022-08-17T01:47:50.556Z,14.91
2022-08-17T01:48:01.074Z,14.91
2022-08-17T01:48:11.593Z,14.91
2022-08-17T01:48:22.107Z,14.92
2022-08-17T01:48:32.623Z,14.91
2022-08-17T01:48:43.140Z,14.92
2022-08-17T01:48:53.679Z,14.89
2022-08-17T01:49:04.180Z,14.89
2022-08-17T01:49:14.702Z,14.89
2022-08-17T01:49:25.213Z,14.88
2022-08-17T01:49:35.757Z,14.88
2022-08-17T01:49:46.253Z,14.88
2022-08-17T01:49:56.786Z,14.88
2022-08-17T01:50:07.281Z,14.88
2022-08-17T01:50:17.809Z,14.86
2022-08-17T01:50:28.331Z,14.88
2022-08-17T01:50:38.846Z,14.88
2022-08-17T01:50:49.361Z,14.86
2022-08-17T01:50:59.881Z,14.84
2022-08-17T01:51:10.397Z,14.84
2022-08-17T01:51:20.927Z,14.83
2022-08-17T01:51:31.458Z,14.83
2022-08-17T01:51:41.965Z,14.83
2022-08-17T01:51:52.472Z,14.84
2022-08-17T01:52:03.001Z,14.83
2022-08-17T01:52:13.509Z,14.83
2022-08-17T01:52:24.029Z,14.84
2022-08-17T01:52:34.542Z,14.83
2022-08-17T01:52:45.075Z,14.81
2022-08-17T01:52:55.584Z,14.84
2022-08-17T01:53:06.107Z,14.84
2022-08-17T01:53:16.625Z,14.83
2022-08-17T01:53:27.147Z,14.81
2022-08-17T01:53:37.656Z,14.84
2022-08-17T01:53:48.180Z,14.81
2022-08-17T01:53:58.699Z,14.83
2022-08-17T01:54:09.214Z,14.84
2022-08-17T01:54:19.756Z,14.83
2022-08-17T01:54:30.251Z,14.83
2022-08-17T01:54:40.766Z,14.81
2022-08-17T01:54:51.288Z,14.84
2022-08-17T01:55:01.814Z,14.81
2022-08-17T01:55:12.326Z,14.83
2022-08-17T01:55:27.202Z,14.81
2022-08-17T01:55:33.361Z,14.81
2022-08-17T01:55:43.876Z,14.81
2022-08-17T01:55:54.398Z,14.83
2022-08-17T01:56:04.914Z,14.81
2022-08-17T01:56:15.428Z,14.83
2022-08-17T01:56:25.950Z,14.81
2022-08-17T01:56:36.464Z,14.81
2022-08-17T01:56:47.480Z,14.81
2022-08-17T01:56:57.501Z,14.83
2022-08-17T01:57:08.014Z,14.81
2022-08-17T01:57:18.538Z,14.86
2022-08-17T01:57:29.058Z,14.86
2022-08-17T01:57:39.575Z,14.84
2022-08-17T01:57:50.086Z,14.88
2022-08-17T01:58:00.614Z,14.88
2022-08-17T01:58:11.130Z,14.89
2022-08-17T01:58:21.645Z,14.89
2022-08-17T01:58:32.167Z,14.92
2022-08-17T01:58:42.685Z,14.92
2022-08-17T01:58:53.198Z,14.94
2022-08-17T01:59:03.739Z,14.94
2022-08-17T01:59:14.238Z,14.94
2022-08-17T01:59:24.760Z,14.95
2022-08-17T01:59:35.279Z,14.96
2022-08-17T01:59:45.803Z,14.96
2022-08-17T01:59:56.331Z,14.96
2022-08-17T02:00:06.839Z,14.96
2022-08-17T02:00:17.356Z,14.96
2022-08-17T02:00:27.947Z,14.96
2022-08-17T02:00:59.751Z,14.95
2022-08-17T02:01:01.016Z,14.96
2022-08-17T02:01:01.633Z,14.96
2022-08-17T02:01:10.094Z,14.94
2022-08-17T02:01:20.548Z,14.95
2022-08-17T02:01:31.036Z,14.95
2022-08-17T02:01:41.567Z,14.94
2022-08-17T02:01:52.092Z,14.94
2022-08-17T02:02:02.560Z,14.94
2022-08-17T02:02:13.071Z,14.92
2022-08-17T02:02:30.375Z,14.94
2022-08-17T02:02:35.104Z,14.91
2022-08-17T02:02:44.612Z,14.91
2022-08-17T02:02:55.134Z,14.91
2022-08-17T02:03:05.663Z,14.91
2022-08-17T02:03:16.173Z,14.89
2022-08-17T02:03:26.700Z,14.91
2022-08-17T02:03:37.226Z,14.89
2022-08-17T02:03:59.481Z,14.88
2022-08-17T02:04:01.171Z,14.88
2022-08-17T02:04:08.771Z,14.89
2022-08-17T02:04:19.295Z,14.86
2022-08-17T02:04:29.802Z,14.86
2022-08-17T02:04:40.342Z,14.86
2022-08-17T02:04:50.838Z,14.86
2022-08-17T02:05:01.367Z,14.83
2022-08-17T02:05:11.879Z,14.84
2022-08-17T02:05:22.392Z,14.83
2022-08-17T02:05:32.957Z,14.83
2022-08-17T02:05:43.429Z,14.80
2022-08-17T02:05:53.945Z,14.81
2022-08-17T02:06:05.262Z,14.80
2022-08-17T02:06:27.042Z,14.78
2022-08-17T02:06:27.510Z,14.78
2022-08-17T02:06:53.698Z,14.77
2022-08-17T02:06:54.266Z,14.77
2022-08-17T02:06:58.073Z,14.77
2022-08-17T02:07:07.588Z,14.77
2022-08-17T02:07:18.109Z,14.75
2022-08-17T02:07:29.624Z,14.75
2022-08-17T02:07:59.674Z,14.75
2022-08-17T02:08:00.483Z,14.73
2022-08-17T02:08:01.179Z,14.72
2022-08-17T02:08:20.109Z,14.70
2022-08-17T02:08:38.824Z,14.70
2022-08-17T02:08:38.835Z,14.72
2022-08-17T02:09:01.831Z,14.72
2022-08-17T02:09:03.019Z,14.70
2022-08-17T02:09:04.290Z,14.69
2022-08-17T02:09:16.733Z,14.69
2022-08-17T02:09:25.435Z,14.68
2022-08-17T02:09:34.848Z,14.68
2022-08-17T02:09:46.368Z,14.65
2022-08-17T02:09:56.889Z,14.65
2022-08-17T02:10:06.409Z,14.65
2022-08-17T02:10:20.174Z,14.65
2022-08-17T02:10:34.249Z,14.68
2022-08-17T02:10:38.966Z,14.64
2022-08-17T02:10:49.475Z,14.65
2022-08-17T02:10:58.997Z,14.64
2022-08-17T02:11:11.333Z,14.65
2022-08-17T02:11:20.031Z,14.65
2022-08-17T02:11:30.556Z,14.64
2022-08-17T02:11:41.093Z,14.62
2022-08-17T02:11:51.598Z,14.64
2022-08-17T02:12:05.771Z,14.62
2022-08-17T02:12:38.124Z,14.65
2022-08-17T02:12:38.953Z,14.65
2022-08-17T02:12:38.985Z,14.64
2022-08-17T02:12:44.181Z,14.65
2022-08-17T02:12:54.898Z,14.65
2022-08-17T02:13:05.215Z,14.65
2022-08-17T02:13:15.739Z,14.64
2022-08-17T02:13:26.261Z,14.64
2022-08-17T02:13:36.785Z,14.64
2022-08-17T02:13:47.294Z,14.62
2022-08-17T02:14:03.009Z,14.62
2022-08-17T02:14:09.331Z,14.62
2022-08-17T02:14:18.849Z,14.65
2022-08-17T02:14:29.367Z,14.64
2022-08-17T02:14:39.886Z,14.65
2022-08-17T02:14:50.406Z,14.64
2022-08-17T02:15:00.920Z,14.62
2022-08-17T02:15:11.437Z,14.62
2022-08-17T02:15:21.959Z,14.61